sensor_id;sensor_type;location;lat;lon;timestamp;P1;durP1;ratioP1;P2;durP2;ratioP2
59685;SDS011;45554;51.096;16.976;2024-03-07T00:03:04;39.80;;;26.30;;
59685;SDS011;45554;51.096;16.976;2024-03-07T00:06:06;41.70;;;26.00;;
59685;SDS011;45554;51.096;16.976;2024-03-07T00:09:52;36.60;;;25.60;;
59685;SDS011;45554;51.096;16.976;2024-03-07T00:13:53;41.20;;;25.60;;
59685;SDS011;45554;51.096;16.976;2024-03-07T00:17:07;36.90;;;25.40;;
59685;SDS011;45554;51.096;16.976;2024-03-07T00:24:18;39.60;;;25.60;;
59685;SDS011;45554;51.096;16.976;2024-03-07T00:27:57;37.70;;;25.00;;
59685;SDS011;45554;51.096;16.976;2024-03-07T00:35:51;38.50;;;26.00;;
59685;SDS011;45554;51.096;16.976;2024-03-07T00:53:26;34.10;;;22.70;;
59685;SDS011;45554;51.096;16.976;2024-03-07T01:01:03;38.40;;;25.40;;
59685;SDS011;45554;51.096;16.976;2024-03-07T01:03:46;35.20;;;24.40;;
59685;SDS011;45554;51.096;16.976;2024-03-07T01:07:27;37.10;;;23.80;;
59685;SDS011;45554;51.096;16.976;2024-03-07T01:10:46;37.50;;;25.20;;
59685;SDS011;45554;51.096;16.976;2024-03-07T01:14:14;35.30;;;23.30;;
59685;SDS011;45554;51.096;16.976;2024-03-07T01:17:56;33.90;;;22.40;;
59685;SDS011;45554;51.096;16.976;2024-03-07T01:21:13;33.30;;;22.80;;
59685;SDS011;45554;51.096;16.976;2024-03-07T01:24:28;33.50;;;22.90;;
59685;SDS011;45554;51.096;16.976;2024-03-07T01:28:15;34.00;;;22.50;;
59685;SDS011;45554;51.096;16.976;2024-03-07T01:35:25;34.30;;;23.00;;
59685;SDS011;45554;51.096;16.976;2024-03-07T01:42:01;30.70;;;21.40;;
59685;SDS011;45554;51.096;16.976;2024-03-07T01:45:22;34.10;;;23.10;;
59685;SDS011;45554;51.096;16.976;2024-03-07T01:49:07;33.10;;;22.30;;
59685;SDS011;45554;51.096;16.976;2024-03-07T01:52:31;34.80;;;23.00;;
59685;SDS011;45554;51.096;16.976;2024-03-07T02:06:14;34.50;;;23.40;;
59685;SDS011;45554;51.096;16.976;2024-03-07T02:10:25;32.00;;;22.00;;
59685;SDS011;45554;51.096;16.976;2024-03-07T02:14:18;33.60;;;22.50;;
59685;SDS011;45554;51.096;16.976;2024-03-07T02:18:02;32.70;;;22.10;;
59685;SDS011;45554;51.096;16.976;2024-03-07T02:21:07;34.00;;;23.70;;
59685;SDS011;45554;51.096;16.976;2024-03-07T02:24:36;34.30;;;23.30;;
59685;SDS011;45554;51.096;16.976;2024-03-07T02:32:00;35.50;;;23.20;;
59685;SDS011;45554;51.096;16.976;2024-03-07T02:39:39;33.20;;;22.60;;
59685;SDS011;45554;51.096;16.976;2024-03-07T02:43:12;34.80;;;23.40;;
59685;SDS011;45554;51.096;16.976;2024-03-07T02:50:36;34.60;;;24.10;;
59685;SDS011;45554;51.096;16.976;2024-03-07T02:54:39;33.90;;;22.50;;
59685;SDS011;45554;51.096;16.976;2024-03-07T02:58:20;36.30;;;24.30;;
59685;SDS011;45554;51.096;16.976;2024-03-07T03:05:39;34.30;;;23.70;;
59685;SDS011;45554;51.096;16.976;2024-03-07T03:09:39;33.80;;;23.70;;
59685;SDS011;45554;51.096;16.976;2024-03-07T03:14:03;33.80;;;23.80;;
59685;SDS011;45554;51.096;16.976;2024-03-07T03:17:29;34.90;;;23.40;;
59685;SDS011;45554;51.096;16.976;2024-03-07T03:21:22;30.10;;;22.20;;
59685;SDS011;45554;51.096;16.976;2024-03-07T03:36:45;35.40;;;23.60;;
59685;SDS011;45554;51.096;16.976;2024-03-07T03:40:14;31.90;;;22.30;;
59685;SDS011;45554;51.096;16.976;2024-03-07T03:47:25;30.40;;;21.50;;
59685;SDS011;45554;51.096;16.976;2024-03-07T03:51:15;29.20;;;21.10;;
59685;SDS011;45554;51.096;16.976;2024-03-07T03:54:59;31.00;;;21.90;;
59685;SDS011;45554;51.096;16.976;2024-03-07T03:58:39;29.90;;;19.90;;
59685;SDS011;45554;51.096;16.976;2024-03-07T04:02:24;33.30;;;22.60;;
59685;SDS011;45554;51.096;16.976;2024-03-07T04:06:09;31.00;;;20.70;;
59685;SDS011;45554;51.096;16.976;2024-03-07T04:09:28;32.10;;;22.20;;
59685;SDS011;45554;51.096;16.976;2024-03-07T04:12:41;30.70;;;21.20;;
59685;SDS011;45554;51.096;16.976;2024-03-07T04:16:39;32.00;;;20.90;;
59685;SDS011;45554;51.096;16.976;2024-03-07T04:19:59;31.90;;;22.30;;
59685;SDS011;45554;51.096;16.976;2024-03-07T04:23:39;33.10;;;23.00;;
59685;SDS011;45554;51.096;16.976;2024-03-07T04:26:56;34.80;;;23.60;;
59685;SDS011;45554;51.096;16.976;2024-03-07T04:31:10;34.20;;;23.00;;
59685;SDS011;45554;51.096;16.976;2024-03-07T04:35:00;34.40;;;24.50;;
59685;SDS011;45554;51.096;16.976;2024-03-07T04:42:08;35.10;;;23.30;;
59685;SDS011;45554;51.096;16.976;2024-03-07T04:45:55;37.00;;;24.70;;
59685;SDS011;45554;51.096;16.976;2024-03-07T04:54:26;33.30;;;23.60;;
59685;SDS011;45554;51.096;16.976;2024-03-07T04:58:40;34.40;;;22.30;;
59685;SDS011;45554;51.096;16.976;2024-03-07T05:02:19;31.20;;;22.50;;
59685;SDS011;45554;51.096;16.976;2024-03-07T05:06:11;33.00;;;22.70;;
59685;SDS011;45554;51.096;16.976;2024-03-07T05:10:02;34.20;;;23.40;;
59685;SDS011;45554;51.096;16.976;2024-03-07T05:13:22;33.00;;;23.00;;
59685;SDS011;45554;51.096;16.976;2024-03-07T05:16:40;34.50;;;23.50;;
59685;SDS011;45554;51.096;16.976;2024-03-07T05:20:31;35.30;;;25.10;;
59685;SDS011;45554;51.096;16.976;2024-03-07T05:24:28;30.80;;;22.90;;
59685;SDS011;45554;51.096;16.976;2024-03-07T05:28:16;33.90;;;22.70;;
59685;SDS011;45554;51.096;16.976;2024-03-07T05:36:08;32.70;;;23.20;;
59685;SDS011;45554;51.096;16.976;2024-03-07T05:40:04;32.60;;;23.20;;
59685;SDS011;45554;51.096;16.976;2024-03-07T05:42:56;35.00;;;25.70;;
59685;SDS011;45554;51.096;16.976;2024-03-07T05:46:32;31.90;;;22.70;;
59685;SDS011;45554;51.096;16.976;2024-03-07T05:50:15;30.50;;;22.50;;
59685;SDS011;45554;51.096;16.976;2024-03-07T05:54:26;30.00;;;21.80;;
59685;SDS011;45554;51.096;16.976;2024-03-07T05:58:24;33.20;;;22.00;;
59685;SDS011;45554;51.096;16.976;2024-03-07T06:01:50;29.90;;;22.30;;
59685;SDS011;45554;51.096;16.976;2024-03-07T06:08:45;28.30;;;21.80;;
59685;SDS011;45554;51.096;16.976;2024-03-07T06:12:16;30.50;;;21.80;;
59685;SDS011;45554;51.096;16.976;2024-03-07T06:15:57;31.30;;;23.60;;
59685;SDS011;45554;51.096;16.976;2024-03-07T06:23:08;36.60;;;29.10;;
59685;SDS011;45554;51.096;16.976;2024-03-07T06:26:55;33.50;;;22.80;;
59685;SDS011;45554;51.096;16.976;2024-03-07T06:30:43;26.00;;;19.60;;
59685;SDS011;45554;51.096;16.976;2024-03-07T06:33:55;26.70;;;18.80;;
59685;SDS011;45554;51.096;16.976;2024-03-07T06:37:19;27.00;;;19.10;;
59685;SDS011;45554;51.096;16.976;2024-03-07T06:41:04;27.00;;;20.10;;
59685;SDS011;45554;51.096;16.976;2024-03-07T06:45:08;28.10;;;19.90;;
59685;SDS011;45554;51.096;16.976;2024-03-07T06:49:09;28.50;;;19.30;;
59685;SDS011;45554;51.096;16.976;2024-03-07T06:52:44;26.40;;;17.70;;
59685;SDS011;45554;51.096;16.976;2024-03-07T06:56:25;25.90;;;19.10;;
59685;SDS011;45554;51.096;16.976;2024-03-07T07:00:17;25.20;;;17.90;;
59685;SDS011;45554;51.096;16.976;2024-03-07T07:03:41;25.80;;;17.70;;
59685;SDS011;45554;51.096;16.976;2024-03-07T07:07:57;24.50;;;18.10;;
59685;SDS011;45554;51.096;16.976;2024-03-07T07:12:04;26.30;;;18.40;;
59685;SDS011;45554;51.096;16.976;2024-03-07T07:20:55;28.20;;;18.70;;
59685;SDS011;45554;51.096;16.976;2024-03-07T07:25:20;29.30;;;20.40;;
59685;SDS011;45554;51.096;16.976;2024-03-07T07:30:11;31.50;;;25.80;;
59685;SDS011;45554;51.096;16.976;2024-03-07T07:37:34;24.70;;;18.40;;
59685;SDS011;45554;51.096;16.976;2024-03-07T08:04:37;27.80;;;19.10;;
59685;SDS011;45554;51.096;16.976;2024-03-07T08:09:27;25.60;;;18.10;;
59685;SDS011;45554;51.096;16.976;2024-03-07T08:18:35;27.10;;;18.40;;
59685;SDS011;45554;51.096;16.976;2024-03-07T08:22:45;26.20;;;18.30;;
59685;SDS011;45554;51.096;16.976;2024-03-07T08:32:07;29.50;;;21.10;;
59685;SDS011;45554;51.096;16.976;2024-03-07T08:40:56;25.20;;;17.30;;
59685;SDS011;45554;51.096;16.976;2024-03-07T09:02:20;23.20;;;16.30;;
59685;SDS011;45554;51.096;16.976;2024-03-07T09:09:18;27.40;;;18.70;;
59685;SDS011;45554;51.096;16.976;2024-03-07T09:14:18;23.20;;;17.00;;
59685;SDS011;45554;51.096;16.976;2024-03-07T09:18:28;23.10;;;17.20;;
59685;SDS011;45554;51.096;16.976;2024-03-07T15:46:04;24.40;;;16.30;;
59685;SDS011;45554;51.096;16.976;2024-03-07T19:50:24;27.80;;;20.80;;
59685;SDS011;45554;51.096;16.976;2024-03-07T20:01:33;30.10;;;21.40;;
59685;SDS011;45554;51.096;16.976;2024-03-07T20:04:38;28.10;;;20.90;;
59685;SDS011;45554;51.096;16.976;2024-03-07T20:15:34;31.30;;;22.40;;
59685;SDS011;45554;51.096;16.976;2024-03-07T20:18:30;31.40;;;22.00;;
59685;SDS011;45554;51.096;16.976;2024-03-07T20:21:44;30.30;;;21.60;;
59685;SDS011;45554;51.096;16.976;2024-03-07T20:24:22;32.30;;;22.90;;
59685;SDS011;45554;51.096;16.976;2024-03-07T20:29:21;32.60;;;24.30;;
59685;SDS011;45554;51.096;16.976;2024-03-07T20:32:53;32.60;;;22.60;;
59685;SDS011;45554;51.096;16.976;2024-03-07T20:36:59;31.20;;;22.70;;
59685;SDS011;45554;51.096;16.976;2024-03-07T20:43:47;30.30;;;21.30;;
59685;SDS011;45554;51.096;16.976;2024-03-07T20:46:49;33.80;;;23.50;;
59685;SDS011;45554;51.096;16.976;2024-03-07T20:53:11;31.30;;;21.80;;
59685;SDS011;45554;51.096;16.976;2024-03-07T20:56:30;33.80;;;22.90;;
59685;SDS011;45554;51.096;16.976;2024-03-07T21:00:07;31.80;;;23.40;;
59685;SDS011;45554;51.096;16.976;2024-03-07T21:06:18;31.30;;;22.40;;
59685;SDS011;45554;51.096;16.976;2024-03-07T21:09:37;30.30;;;21.90;;
59685;SDS011;45554;51.096;16.976;2024-03-07T21:12:50;32.70;;;22.70;;
59685;SDS011;45554;51.096;16.976;2024-03-07T21:15:47;35.50;;;23.30;;
59685;SDS011;45554;51.096;16.976;2024-03-07T21:22:34;35.20;;;24.20;;
59685;SDS011;45554;51.096;16.976;2024-03-07T21:25:25;31.30;;;23.10;;
59685;SDS011;45554;51.096;16.976;2024-03-07T21:29:09;34.60;;;24.00;;
59685;SDS011;45554;51.096;16.976;2024-03-07T21:32:33;33.00;;;23.80;;
59685;SDS011;45554;51.096;16.976;2024-03-07T21:46:13;34.20;;;24.00;;
59685;SDS011;45554;51.096;16.976;2024-03-07T21:57:05;34.90;;;24.30;;
59685;SDS011;45554;51.096;16.976;2024-03-07T22:00:14;34.80;;;24.60;;
59685;SDS011;45554;51.096;16.976;2024-03-07T22:03:43;35.20;;;24.40;;
59685;SDS011;45554;51.096;16.976;2024-03-07T22:16:53;37.20;;;27.30;;
59685;SDS011;45554;51.096;16.976;2024-03-07T22:24:53;37.70;;;27.50;;
59685;SDS011;45554;51.096;16.976;2024-03-07T22:32:53;37.60;;;27.10;;
59685;SDS011;45554;51.096;16.976;2024-03-07T22:40:59;41.40;;;28.20;;
59685;SDS011;45554;51.096;16.976;2024-03-07T22:44:12;36.70;;;26.40;;
59685;SDS011;45554;51.096;16.976;2024-03-07T22:48:23;37.50;;;26.50;;
59685;SDS011;45554;51.096;16.976;2024-03-07T23:00:09;37.60;;;27.50;;
59685;SDS011;45554;51.096;16.976;2024-03-07T23:03:38;38.30;;;28.00;;
59685;SDS011;45554;51.096;16.976;2024-03-07T23:21:09;37.20;;;26.80;;
59685;SDS011;45554;51.096;16.976;2024-03-07T23:25:39;37.50;;;26.80;;
59685;SDS011;45554;51.096;16.976;2024-03-07T23:33:14;38.70;;;28.20;;
59685;SDS011;45554;51.096;16.976;2024-03-07T23:51:24;41.00;;;27.70;;
59685;SDS011;45554;51.096;16.976;2024-03-07T23:54:47;40.40;;;27.50;;
